createdAt,value
2022-07-31T00:00:19.208Z,17.80
2022-07-31T00:02:46.769Z,17.80
2022-07-31T00:05:13.784Z,17.70
2022-07-31T00:07:40.566Z,17.70
2022-07-31T00:10:07.756Z,17.70
2022-07-31T00:12:37.364Z,17.60
2022-07-31T00:15:05.991Z,17.60
2022-07-31T00:17:33.095Z,17.70
2022-07-31T00:19:59.737Z,17.70
2022-07-31T00:22:26.445Z,17.70
2022-07-31T00:24:53.239Z,17.60
2022-07-31T00:27:19.916Z,17.50
2022-07-31T00:29:46.609Z,17.50
2022-07-31T00:32:13.400Z,17.60
2022-07-31T00:34:40.097Z,17.50
2022-07-31T00:37:07.121Z,17.50
2022-07-31T00:39:34.158Z,17.50
2022-07-31T00:42:00.874Z,17.40
2022-07-31T00:44:27.686Z,17.40
2022-07-31T00:46:54.838Z,17.40
2022-07-31T00:49:22.163Z,17.40
2022-07-31T00:51:48.991Z,17.40
2022-07-31T00:54:23.006Z,17.40
2022-07-31T00:56:50.713Z,17.30
2022-07-31T00:59:18.863Z,17.30
2022-07-31T01:01:51.333Z,17.30
2022-07-31T01:04:19.175Z,17.30
2022-07-31T01:06:47.478Z,17.30
2022-07-31T01:09:17.116Z,17.20
2022-07-31T01:11:46.811Z,17.20
2022-07-31T01:14:14.124Z,17.10
2022-07-31T01:16:43.171Z,17.00
2022-07-31T01:19:42.365Z,17.00
2022-07-31T01:22:32.876Z,17.00
2022-07-31T01:25:23.636Z,17.00
2022-07-31T01:28:07.206Z,16.90
2022-07-31T01:30:39.056Z,16.90
2022-07-31T01:33:08.474Z,16.90
2022-07-31T01:35:39.005Z,16.90
2022-07-31T01:38:14.054Z,16.90
2022-07-31T01:40:45.335Z,16.80
2022-07-31T01:43:17.650Z,16.80
2022-07-31T01:45:45.940Z,16.70
2022-07-31T01:48:14.368Z,16.70
2022-07-31T01:50:44.305Z,16.70
2022-07-31T01:53:13.808Z,16.70
2022-07-31T01:56:02.563Z,16.60
2022-07-31T01:58:29.940Z,16.50
2022-07-31T02:00:58.469Z,16.50
2022-07-31T02:03:42.815Z,16.50
2022-07-31T02:06:12.122Z,16.40
2022-07-31T02:08:38.920Z,16.40
2022-07-31T02:11:05.837Z,16.40
2022-07-31T02:13:35.787Z,16.30
2022-07-31T02:16:02.673Z,16.30
2022-07-31T02:18:32.748Z,16.30
2022-07-31T02:20:59.515Z,16.30
2022-07-31T02:23:26.208Z,16.30
2022-07-31T02:25:53.213Z,16.30
2022-07-31T02:28:20.539Z,16.20
2022-07-31T02:30:48.882Z,16.20
2022-07-31T02:33:23.059Z,16.20
2022-07-31T02:35:51.260Z,16.10
2022-07-31T02:38:23.179Z,16.00
2022-07-31T02:40:51.285Z,16.00
2022-07-31T02:43:18.714Z,16.00
2022-07-31T02:45:45.767Z,16.00
2022-07-31T02:48:12.605Z,16.00
2022-07-31T02:50:39.966Z,16.00
2022-07-31T02:53:06.833Z,15.90
2022-07-31T02:55:33.819Z,15.90
2022-07-31T02:58:01.890Z,15.90
2022-07-31T03:00:28.663Z,15.90
2022-07-31T03:02:55.467Z,15.80
2022-07-31T03:05:22.221Z,15.90
2022-07-31T03:07:49.101Z,15.80
2022-07-31T03:10:15.897Z,15.80
2022-07-31T03:12:43.526Z,15.70
2022-07-31T03:15:12.522Z,15.70
2022-07-31T03:17:41.156Z,15.80
2022-07-31T03:20:09.198Z,15.80
2022-07-31T03:22:36.137Z,15.90
2022-07-31T03:25:03.945Z,15.90
2022-07-31T03:27:30.644Z,15.90
2022-07-31T03:29:57.355Z,15.90
2022-07-31T03:32:24.098Z,15.90
2022-07-31T03:34:50.824Z,16.00
2022-07-31T03:37:17.595Z,16.00
2022-07-31T03:39:44.266Z,16.00
2022-07-31T03:42:13.048Z,16.00
2022-07-31T03:44:46.445Z,16.10
2022-07-31T03:47:13.180Z,16.00
2022-07-31T03:49:43.505Z,16.10
2022-07-31T03:52:12.467Z,16.10
2022-07-31T03:54:39.773Z,16.20
2022-07-31T03:57:08.120Z,16.20
2022-07-31T03:59:40.641Z,16.20
2022-07-31T04:02:15.466Z,16.20
2022-07-31T04:04:45.654Z,16.20
2022-07-31T04:07:12.378Z,16.20
2022-07-31T04:09:39.042Z,16.30
2022-07-31T04:12:06.310Z,16.30
2022-07-31T04:14:33.470Z,16.30
2022-07-31T04:17:00.188Z,16.40
2022-07-31T04:19:26.842Z,16.40
2022-07-31T04:21:53.486Z,16.40
2022-07-31T04:24:21.778Z,16.40
2022-07-31T04:26:49.369Z,16.50
2022-07-31T04:29:16.534Z,16.50
2022-07-31T04:31:43.219Z,16.50
2022-07-31T04:34:09.964Z,16.50
2022-07-31T04:36:36.607Z,16.50
2022-07-31T04:39:04.034Z,16.50
2022-07-31T04:41:30.741Z,16.50
2022-07-31T04:43:57.968Z,16.50
2022-07-31T04:46:24.724Z,16.50
2022-07-31T04:48:51.629Z,16.60
2022-07-31T04:51:19.011Z,16.60
2022-07-31T04:53:46.136Z,16.60
2022-07-31T04:56:31.582Z,16.70
2022-07-31T04:58:58.448Z,16.70
2022-07-31T05:01:25.232Z,16.70
2022-07-31T05:03:52.097Z,16.80
2022-07-31T05:06:18.867Z,16.80
2022-07-31T05:08:45.554Z,16.90
2022-07-31T05:11:24.548Z,16.90
2022-07-31T05:13:52.179Z,17.00
2022-07-31T05:16:19.584Z,17.10
2022-07-31T05:18:46.591Z,17.10
2022-07-31T05:21:13.868Z,17.20
2022-07-31T05:23:40.927Z,17.40
2022-07-31T05:26:07.954Z,17.30
2022-07-31T05:28:34.789Z,17.30
2022-07-31T05:31:01.680Z,17.40
2022-07-31T05:33:28.508Z,17.40
2022-07-31T05:35:55.626Z,17.50
2022-07-31T05:38:22.321Z,17.50
2022-07-31T05:40:49.157Z,17.60
2022-07-31T05:43:15.877Z,17.70
2022-07-31T05:45:42.576Z,17.90
2022-07-31T05:48:09.311Z,18.10
2022-07-31T05:50:36.185Z,18.20
2022-07-31T05:53:02.902Z,18.30
2022-07-31T05:55:29.566Z,18.50
2022-07-31T05:57:56.288Z,18.50
2022-07-31T06:00:23.033Z,18.60
2022-07-31T06:02:49.711Z,18.70
2022-07-31T06:05:16.370Z,18.80
2022-07-31T06:07:51.849Z,18.80
2022-07-31T06:10:18.875Z,18.90
2022-07-31T06:12:45.554Z,18.90
2022-07-31T06:15:12.259Z,19.00
2022-07-31T06:17:43.881Z,19.10
2022-07-31T06:20:12.179Z,19.10
2022-07-31T06:22:39.668Z,19.20
2022-07-31T06:25:07.021Z,19.30
2022-07-31T06:27:34.849Z,19.30
2022-07-31T06:30:02.023Z,19.40
2022-07-31T06:32:28.690Z,19.50
2022-07-31T06:34:55.392Z,19.50
2022-07-31T06:37:22.173Z,19.60
2022-07-31T06:39:55.522Z,19.70
2022-07-31T06:42:23.591Z,19.80
2022-07-31T06:44:50.329Z,19.90
2022-07-31T06:47:17.588Z,20.00
2022-07-31T06:49:44.330Z,20.20
2022-07-31T06:52:11.085Z,20.20
2022-07-31T06:54:37.854Z,20.30
2022-07-31T06:57:04.650Z,20.40
2022-07-31T06:59:39.415Z,20.40
2022-07-31T07:02:08.065Z,20.50
2022-07-31T07:05:05.140Z,20.60
2022-07-31T07:07:21.818Z,20.70
2022-07-31T07:09:48.649Z,20.80
2022-07-31T07:12:16.996Z,20.80
2022-07-31T07:14:44.383Z,20.90
2022-07-31T07:17:11.099Z,21.00
2022-07-31T07:19:41.805Z,21.20
2022-07-31T07:22:08.521Z,21.20
2022-07-31T07:24:35.261Z,21.40
2022-07-31T07:27:01.976Z,21.50
2022-07-31T07:29:28.694Z,21.50
2022-07-31T07:31:55.381Z,21.50
2022-07-31T07:34:22.067Z,21.60
2022-07-31T07:36:55.127Z,21.80
2022-07-31T07:39:22.948Z,21.90
2022-07-31T07:41:49.884Z,22.00
2022-07-31T07:44:16.809Z,22.10
2022-07-31T07:46:46.300Z,22.10
2022-07-31T07:49:13.001Z,22.20
2022-07-31T07:51:58.839Z,22.20
2022-07-31T07:54:26.467Z,22.20
2022-07-31T07:56:54.900Z,22.20
2022-07-31T07:59:21.658Z,22.10
2022-07-31T08:01:48.376Z,22.00
2022-07-31T08:04:15.035Z,21.90
2022-07-31T08:06:41.831Z,22.00
2022-07-31T08:09:09.124Z,22.00
2022-07-31T08:11:36.110Z,22.10
2022-07-31T08:14:04.344Z,22.10
2022-07-31T08:16:32.533Z,22.20
2022-07-31T08:18:59.204Z,22.20
2022-07-31T08:21:25.942Z,22.30
2022-07-31T08:23:52.862Z,22.40
2022-07-31T08:26:19.654Z,22.40
2022-07-31T08:28:50.304Z,22.30
2022-07-31T08:31:18.445Z,22.20
2022-07-31T08:33:45.135Z,22.10
2022-07-31T08:36:11.798Z,22.20
2022-07-31T08:38:39.422Z,22.30
2022-07-31T08:41:06.161Z,22.30
2022-07-31T08:44:02.404Z,22.50
2022-07-31T08:46:20.367Z,22.70
2022-07-31T08:48:48.449Z,22.70
2022-07-31T08:51:15.618Z,22.70
2022-07-31T08:53:42.556Z,22.80
2022-07-31T08:56:09.419Z,22.90
2022-07-31T08:58:39.716Z,23.00
2022-07-31T09:01:08.099Z,23.00
2022-07-31T09:03:36.163Z,23.10
2022-07-31T09:06:03.682Z,23.30
2022-07-31T09:08:34.031Z,23.40
2022-07-31T09:11:05.980Z,23.40
2022-07-31T09:13:34.899Z,23.60
2022-07-31T09:16:02.578Z,23.80
2022-07-31T09:18:29.380Z,23.70
2022-07-31T09:21:14.267Z,23.50
2022-07-31T09:23:46.342Z,23.50
2022-07-31T09:26:13.025Z,23.70
2022-07-31T09:28:41.084Z,23.80
2022-07-31T09:31:08.574Z,24.10
2022-07-31T09:33:42.328Z,24.10
2022-07-31T09:36:10.525Z,24.10
2022-07-31T09:38:41.654Z,24.00
2022-07-31T09:41:55.579Z,24.20
2022-07-31T09:44:10.579Z,24.20
2022-07-31T09:46:40.657Z,24.30
2022-07-31T09:49:07.653Z,24.20
2022-07-31T09:51:41.234Z,24.30
2022-07-31T09:54:08.572Z,24.30
2022-07-31T09:56:39.029Z,24.30
2022-07-31T09:59:08.832Z,24.20
2022-07-31T10:01:40.992Z,24.20
2022-07-31T10:04:08.449Z,24.30
2022-07-31T10:06:35.691Z,24.30
2022-07-31T10:09:03.858Z,24.30
2022-07-31T10:11:31.719Z,24.40
2022-07-31T10:14:02.243Z,24.60
2022-07-31T10:16:32.294Z,24.70
2022-07-31T10:19:03.596Z,24.70
2022-07-31T10:21:38.152Z,24.70
2022-07-31T10:24:05.492Z,24.80
2022-07-31T10:26:58.613Z,24.90
2022-07-31T10:29:19.898Z,24.80
2022-07-31T10:31:46.895Z,25.00
2022-07-31T10:34:14.976Z,24.90
2022-07-31T10:36:43.632Z,24.90
2022-07-31T10:39:15.789Z,25.10
2022-07-31T10:41:47.088Z,25.30
2022-07-31T10:44:16.874Z,25.40
2022-07-31T10:46:43.520Z,25.30
2022-07-31T10:49:10.356Z,25.20
2022-07-31T10:51:47.556Z,25.40
2022-07-31T10:54:15.564Z,25.40
2022-07-31T10:56:43.425Z,25.50
2022-07-31T10:59:11.117Z,25.40
2022-07-31T11:02:05.909Z,25.40
2022-07-31T11:04:32.800Z,25.50
2022-07-31T11:06:59.784Z,25.50
2022-07-31T11:09:27.568Z,25.30
2022-07-31T11:11:54.744Z,25.40
2022-07-31T11:14:31.674Z,25.50
2022-07-31T11:16:58.922Z,25.40
2022-07-31T11:19:25.640Z,25.20
2022-07-31T11:21:54.523Z,25.10
2022-07-31T11:24:23.390Z,25.00
2022-07-31T11:26:54.357Z,25.00
2022-07-31T11:30:01.550Z,25.10
2022-07-31T11:32:15.093Z,25.40
2022-07-31T11:34:44.661Z,25.60
2022-07-31T11:37:18.391Z,25.80
2022-07-31T11:39:51.743Z,25.90
2022-07-31T11:42:20.249Z,25.70
2022-07-31T11:44:54.507Z,25.60
2022-07-31T11:48:10.331Z,25.50
2022-07-31T11:50:08.186Z,25.50
2022-07-31T11:52:36.829Z,25.40
2022-07-31T11:55:08.780Z,25.50
2022-07-31T11:57:51.858Z,25.40
2022-07-31T12:00:26.453Z,25.60
2022-07-31T12:02:56.370Z,25.60
2022-07-31T12:05:38.837Z,25.70
2022-07-31T12:08:06.664Z,25.60
2022-07-31T12:10:33.484Z,25.50
2022-07-31T12:13:00.543Z,25.60
2022-07-31T12:15:27.241Z,25.60
2022-07-31T12:18:01.691Z,25.90
2022-07-31T12:20:35.755Z,25.70
2022-07-31T12:23:03.828Z,25.60
2022-07-31T12:25:39.511Z,25.60
2022-07-31T12:28:07.627Z,25.60
2022-07-31T12:30:34.365Z,25.70
2022-07-31T12:33:05.026Z,25.70
2022-07-31T12:35:56.424Z,25.80
2022-07-31T12:38:44.760Z,25.90
2022-07-31T12:41:14.119Z,26.00
2022-07-31T12:43:51.574Z,26.00
2022-07-31T12:46:20.252Z,26.10
2022-07-31T12:48:46.909Z,26.30
2022-07-31T12:51:13.648Z,26.40
2022-07-31T12:53:40.388Z,26.50
2022-07-31T12:56:11.019Z,26.60
2022-07-31T12:58:37.719Z,26.60
2022-07-31T13:01:04.402Z,26.70
2022-07-31T13:03:45.995Z,26.70
2022-07-31T13:06:13.793Z,26.60
2022-07-31T13:08:40.764Z,26.60
2022-07-31T13:11:07.458Z,26.70
2022-07-31T13:13:34.128Z,26.90
2022-07-31T13:16:00.882Z,26.90
2022-07-31T13:18:29.992Z,27.00
2022-07-31T13:20:56.724Z,26.70
2022-07-31T13:23:23.506Z,26.70
2022-07-31T13:25:50.218Z,26.60
2022-07-31T13:28:16.924Z,26.60
2022-07-31T13:30:43.626Z,26.40
2022-07-31T13:33:10.383Z,26.60
2022-07-31T13:35:37.071Z,26.70
2022-07-31T13:38:03.816Z,26.70
2022-07-31T13:40:49.058Z,26.50
2022-07-31T13:43:15.818Z,26.40
2022-07-31T13:45:42.590Z,26.50
2022-07-31T13:48:12.389Z,26.60
2022-07-31T13:50:42.041Z,26.80
2022-07-31T13:53:09.377Z,26.80
2022-07-31T13:55:36.287Z,26.60
2022-07-31T13:58:03.277Z,26.40
2022-07-31T14:00:30.252Z,26.60
2022-07-31T14:02:57.345Z,26.60
2022-07-31T14:05:26.431Z,26.90
2022-07-31T14:07:54.837Z,27.20
2022-07-31T14:10:21.890Z,27.10
2022-07-31T14:12:48.736Z,27.30
2022-07-31T14:15:16.606Z,27.10
2022-07-31T14:17:43.292Z,26.80
2022-07-31T14:20:10.218Z,26.90
2022-07-31T14:22:36.902Z,27.00
2022-07-31T14:25:03.875Z,27.10
2022-07-31T14:27:30.786Z,27.10
2022-07-31T14:29:57.557Z,27.20
2022-07-31T14:32:25.169Z,27.10
2022-07-31T14:34:52.306Z,27.00
2022-07-31T14:37:20.057Z,26.80
2022-07-31T14:39:46.893Z,26.90
2022-07-31T14:42:13.661Z,27.00
2022-07-31T14:44:42.297Z,27.10
2022-07-31T14:47:09.982Z,27.20
2022-07-31T14:50:08.330Z,26.80
2022-07-31T14:52:23.641Z,26.60
2022-07-31T14:54:50.415Z,26.60
2022-07-31T14:57:22.292Z,26.80
2022-07-31T14:59:50.282Z,27.20
2022-07-31T15:02:21.810Z,27.60
2022-07-31T15:04:49.210Z,27.40
2022-07-31T15:10:04.339Z,26.80
2022-07-31T15:12:31.157Z,26.60
2022-07-31T15:14:57.849Z,26.60
2022-07-31T15:17:24.843Z,26.50
2022-07-31T15:19:51.620Z,26.50
2022-07-31T15:22:19.289Z,26.60
2022-07-31T15:24:49.155Z,26.70
2022-07-31T15:27:21.578Z,26.70
2022-07-31T15:30:03.838Z,26.70
2022-07-31T15:32:33.345Z,26.70
2022-07-31T15:35:00.040Z,26.80
2022-07-31T15:37:26.778Z,26.80
2022-07-31T15:40:01.451Z,26.70
2022-07-31T15:42:34.669Z,26.50
2022-07-31T15:45:01.498Z,26.30
2022-07-31T15:47:28.246Z,26.10
2022-07-31T15:49:55.139Z,26.00
2022-07-31T15:52:21.927Z,26.00
2022-07-31T15:54:52.114Z,25.90
2022-07-31T15:57:22.687Z,25.90
2022-07-31T15:59:49.800Z,25.90
2022-07-31T16:02:16.602Z,25.90
2022-07-31T16:04:51.756Z,25.90
2022-07-31T16:08:30.615Z,26.00
2022-07-31T16:10:15.675Z,26.30
2022-07-31T16:12:44.492Z,27.10
2022-07-31T16:15:12.353Z,27.50
2022-07-31T16:17:39.292Z,29.00
2022-07-31T16:20:10.412Z,29.80
2022-07-31T16:22:37.845Z,29.70
2022-07-31T16:25:05.179Z,28.90
2022-07-31T16:27:31.892Z,28.20
2022-07-31T16:30:01.680Z,27.80
2022-07-31T16:32:28.933Z,27.80
2022-07-31T16:35:00.253Z,28.30
2022-07-31T16:37:51.827Z,28.30
2022-07-31T16:40:28.246Z,28.10
2022-07-31T16:42:59.571Z,27.80
2022-07-31T16:45:27.091Z,27.50
2022-07-31T16:47:53.834Z,27.30
2022-07-31T16:50:20.533Z,27.20
2022-07-31T16:52:51.286Z,27.10
2022-07-31T16:55:21.139Z,27.60
2022-07-31T16:58:11.040Z,28.30
2022-07-31T17:00:38.626Z,27.80
2022-07-31T17:03:05.359Z,27.30
2022-07-31T17:05:32.039Z,26.90
2022-07-31T17:07:58.737Z,26.60
2022-07-31T17:10:25.513Z,26.50
2022-07-31T17:12:53.834Z,26.30
2022-07-31T17:15:20.745Z,26.20
2022-07-31T17:17:47.481Z,26.20
2022-07-31T17:20:14.969Z,26.10
2022-07-31T17:22:41.797Z,26.00
2022-07-31T17:25:10.219Z,25.90
2022-07-31T17:27:36.912Z,25.70
2022-07-31T17:30:04.238Z,25.70
2022-07-31T17:32:32.404Z,25.60
2022-07-31T17:34:59.081Z,25.60
2022-07-31T17:37:25.882Z,25.50
2022-07-31T17:39:56.297Z,25.50
2022-07-31T17:42:25.332Z,25.40
2022-07-31T17:44:55.179Z,25.40
2022-07-31T17:47:25.570Z,25.40
2022-07-31T17:49:52.594Z,25.30
2022-07-31T17:52:20.970Z,25.10
2022-07-31T17:54:48.007Z,25.00
2022-07-31T17:57:14.699Z,24.80
2022-07-31T17:59:42.513Z,24.90
2022-07-31T18:02:09.933Z,24.70
2022-07-31T18:04:37.624Z,24.60
2022-07-31T18:07:05.285Z,24.40
2022-07-31T18:09:32.460Z,24.30
2022-07-31T18:11:59.298Z,24.10
2022-07-31T18:14:26.085Z,24.10
2022-07-31T18:16:53.287Z,24.00
2022-07-31T18:19:21.473Z,23.90
2022-07-31T18:21:48.438Z,23.80
2022-07-31T18:24:15.097Z,23.70
2022-07-31T18:26:41.780Z,23.70
2022-07-31T18:29:08.443Z,23.60
2022-07-31T18:31:36.102Z,23.60
2022-07-31T18:34:06.596Z,23.50
2022-07-31T18:36:34.135Z,23.50
2022-07-31T18:39:01.252Z,23.40
2022-07-31T18:41:28.093Z,23.40
2022-07-31T18:43:54.990Z,23.30
2022-07-31T18:46:23.563Z,23.30
2022-07-31T18:48:55.041Z,23.20
2022-07-31T18:51:23.277Z,23.10
2022-07-31T18:53:50.632Z,23.10
2022-07-31T18:56:17.463Z,23.00
2022-07-31T18:58:44.250Z,22.90
2022-07-31T19:01:11.027Z,22.90
2022-07-31T19:03:37.726Z,22.90
2022-07-31T19:06:04.586Z,22.80
2022-07-31T19:08:31.418Z,22.70
2022-07-31T19:10:58.379Z,22.70
2022-07-31T19:13:25.058Z,22.70
2022-07-31T19:15:53.018Z,22.60
2022-07-31T19:18:24.405Z,22.60
2022-07-31T19:21:15.915Z,22.60
2022-07-31T19:23:42.997Z,22.50
2022-07-31T19:26:09.756Z,22.50
2022-07-31T19:28:36.765Z,22.50
2022-07-31T19:31:03.534Z,22.40
2022-07-31T19:33:30.269Z,22.40
2022-07-31T19:36:01.769Z,22.30
2022-07-31T19:38:29.314Z,22.30
2022-07-31T19:40:56.019Z,22.30
2022-07-31T19:43:22.706Z,22.20
2022-07-31T19:46:02.396Z,22.20
2022-07-31T19:48:36.912Z,22.20
2022-07-31T19:51:04.348Z,22.10
2022-07-31T19:53:31.111Z,22.10
2022-07-31T19:55:57.877Z,22.10
2022-07-31T19:58:24.707Z,22.10
2022-07-31T20:00:51.462Z,22.10
2022-07-31T20:03:18.755Z,22.00
2022-07-31T20:05:45.538Z,22.00
2022-07-31T20:08:12.300Z,22.00
2022-07-31T20:10:39.018Z,22.00
2022-07-31T20:13:05.705Z,21.90
2022-07-31T20:15:52.672Z,21.90
2022-07-31T20:18:27.202Z,21.90
2022-07-31T20:21:13.177Z,21.80
2022-07-31T20:23:41.472Z,21.80
2022-07-31T20:26:09.663Z,21.80
2022-07-31T20:28:36.587Z,21.80
2022-07-31T20:31:03.377Z,21.80
2022-07-31T20:33:30.113Z,21.70
2022-07-31T20:35:56.776Z,21.70
2022-07-31T20:38:24.162Z,21.70
2022-07-31T20:40:54.240Z,21.70
2022-07-31T20:43:25.657Z,21.60
2022-07-31T20:45:53.066Z,21.60
2022-07-31T20:48:22.500Z,21.60
2022-07-31T20:50:49.438Z,21.60
2022-07-31T20:53:16.574Z,21.50
2022-07-31T20:55:49.213Z,21.50
2022-07-31T20:58:16.851Z,21.50
2022-07-31T21:00:43.671Z,21.50
2022-07-31T21:03:10.402Z,21.50
2022-07-31T21:05:37.065Z,21.50
2022-07-31T21:08:03.811Z,21.40
2022-07-31T21:10:30.723Z,21.40
2022-07-31T21:13:00.378Z,21.40
2022-07-31T21:15:41.669Z,21.40
2022-07-31T21:18:18.305Z,21.30
2022-07-31T21:20:51.494Z,21.30
2022-07-31T21:23:24.064Z,21.30
2022-07-31T21:25:55.559Z,21.30
2022-07-31T21:28:22.787Z,21.30
2022-07-31T21:30:49.863Z,21.20
2022-07-31T21:33:18.083Z,21.20
2022-07-31T21:35:45.726Z,21.20
2022-07-31T21:38:14.827Z,21.20
2022-07-31T21:40:41.794Z,21.20
2022-07-31T21:43:18.516Z,21.20
2022-07-31T21:45:55.077Z,21.20
2022-07-31T21:48:23.729Z,21.20
2022-07-31T21:50:50.487Z,21.10
2022-07-31T21:53:17.315Z,21.10
2022-07-31T21:55:44.330Z,21.10
2022-07-31T21:58:11.259Z,21.10
2022-07-31T22:00:38.340Z,21.10
2022-07-31T22:03:05.066Z,21.00
2022-07-31T22:05:51.644Z,21.00
2022-07-31T22:08:18.586Z,21.00
2022-07-31T22:10:45.306Z,21.00
2022-07-31T22:13:12.142Z,21.00
2022-07-31T22:15:59.187Z,21.00
2022-07-31T22:18:26.872Z,21.00
2022-07-31T22:20:54.013Z,20.90
2022-07-31T22:23:21.052Z,20.90
2022-07-31T22:25:49.120Z,20.90
2022-07-31T22:28:17.368Z,20.90
2022-07-31T22:30:44.309Z,20.90
2022-07-31T22:33:11.263Z,20.90
2022-07-31T22:35:38.147Z,20.80
2022-07-31T22:38:04.852Z,20.80
2022-07-31T22:40:31.770Z,20.80
2022-07-31T22:42:59.253Z,20.80
2022-07-31T22:45:29.598Z,20.70
2022-07-31T22:47:57.351Z,20.80
2022-07-31T22:50:24.365Z,20.80
2022-07-31T22:52:51.367Z,20.80
2022-07-31T22:55:18.052Z,20.80
2022-07-31T22:57:45.085Z,20.80
2022-07-31T23:00:13.092Z,20.80
2022-07-31T23:02:40.720Z,20.80
2022-07-31T23:05:07.767Z,20.80
2022-07-31T23:07:34.432Z,20.80
2022-07-31T23:10:01.160Z,20.80
2022-07-31T23:12:28.634Z,20.80
2022-07-31T23:14:56.157Z,20.70
2022-07-31T23:17:23.180Z,20.80
2022-07-31T23:19:52.732Z,20.80
2022-07-31T23:22:33.838Z,20.80
2022-07-31T23:25:04.635Z,20.80
2022-07-31T23:27:31.622Z,20.90
2022-07-31T23:29:58.789Z,20.80
2022-07-31T23:32:25.791Z,20.80
2022-07-31T23:34:52.743Z,20.80
2022-07-31T23:37:19.708Z,20.80
2022-07-31T23:39:46.433Z,20.80
2022-07-31T23:42:31.629Z,20.80
2022-07-31T23:44:58.325Z,20.80
2022-07-31T23:47:43.136Z,20.70
2022-07-31T23:50:11.873Z,20.70
2022-07-31T23:52:38.583Z,20.60
2022-07-31T23:55:05.456Z,20.60
2022-07-31T23:57:34.511Z,20.60
